createdAt,value
2022-10-21T00:04:06.115Z,9.80
2022-10-21T00:09:07.558Z,10.15
2022-10-21T00:14:08.958Z,10.32
2022-10-21T00:19:10.362Z,10.00
2022-10-21T00:24:11.765Z,11.50
2022-10-21T00:29:13.193Z,13.23
2022-10-21T00:34:14.666Z,9.38
2022-10-21T00:39:16.397Z,9.63
2022-10-21T00:44:17.813Z,10.90
2022-10-21T00:49:42.267Z,11.05
2022-10-21T00:54:46.243Z,10.70
2022-10-21T00:59:53.666Z,11.60
2022-10-21T01:04:59.298Z,10.85
2022-10-21T01:10:00.706Z,9.82
2022-10-21T01:15:39.960Z,11.23
2022-10-21T01:21:00.071Z,10.13
2022-10-21T01:26:19.404Z,12.18
2022-10-21T01:31:29.953Z,14.25
2022-10-21T01:37:10.345Z,13.65
2022-10-21T01:42:30.610Z,13.10
2022-10-21T01:47:36.383Z,11.30
2022-10-21T01:52:41.310Z,13.45
2022-10-21T01:57:49.201Z,13.68
2022-10-21T02:02:50.725Z,11.85
2022-10-21T02:07:52.140Z,13.07
2022-10-21T02:12:57.306Z,14.93
2022-10-21T02:18:06.848Z,14.55
2022-10-21T02:23:13.305Z,15.10
2022-10-21T02:28:15.022Z,13.27
2022-10-21T02:33:27.620Z,13.32
2022-10-21T02:38:37.456Z,14.10
2022-10-21T02:43:43.743Z,13.65
2022-10-21T02:48:47.855Z,14.38
2022-10-21T02:53:49.246Z,12.52
2022-10-21T02:58:50.647Z,12.75
2022-10-21T03:03:52.016Z,12.52
2022-10-21T03:08:53.613Z,12.50
2022-10-21T03:13:55.136Z,13.30
2022-10-21T03:18:56.579Z,13.82
2022-10-21T03:23:57.986Z,12.98
2022-10-21T03:28:59.398Z,12.27
2022-10-21T03:34:00.773Z,12.85
2022-10-21T03:39:02.177Z,12.40
2022-10-21T03:44:03.762Z,13.38
2022-10-21T03:49:08.555Z,13.10
2022-10-21T03:54:13.471Z,13.77
2022-10-21T03:59:15.026Z,12.90
2022-10-21T04:04:16.479Z,12.80
2022-10-21T04:09:18.022Z,12.75
2022-10-21T04:14:19.498Z,14.30
2022-10-21T04:19:21.128Z,14.05
2022-10-21T04:24:22.551Z,13.18
2022-10-21T04:29:23.978Z,15.30
2022-10-21T04:34:25.377Z,13.77
2022-10-21T04:39:26.820Z,15.05
2022-10-21T04:44:28.225Z,14.40
2022-10-21T04:49:29.597Z,14.23
2022-10-21T04:54:31.053Z,15.48
2022-10-21T04:59:33.439Z,15.38
2022-10-21T05:04:34.857Z,17.27
2022-10-21T05:09:36.289Z,15.35
2022-10-21T05:14:37.681Z,13.88
2022-10-21T05:19:39.050Z,13.90
2022-10-21T05:24:40.443Z,13.50
2022-10-21T05:29:41.850Z,12.75
2022-10-21T05:34:43.242Z,11.43
2022-10-21T05:39:44.935Z,11.63
2022-10-21T05:44:46.436Z,12.15
2022-10-21T05:49:47.821Z,12.07
2022-10-21T05:54:49.261Z,11.88
2022-10-21T05:59:50.652Z,11.15
2022-10-21T06:04:52.047Z,11.52
2022-10-21T06:09:54.868Z,11.07
2022-10-21T06:14:56.717Z,12.40
2022-10-21T06:19:58.126Z,13.07
2022-10-21T06:24:59.525Z,12.68
2022-10-21T06:30:00.946Z,13.35
2022-10-21T06:35:02.445Z,12.27
2022-10-21T06:40:04.168Z,12.38
2022-10-21T06:45:06.130Z,11.48
2022-10-21T06:50:07.994Z,8.13
2022-10-21T06:55:09.810Z,8.48
2022-10-21T07:00:12.500Z,8.70
2022-10-21T07:05:13.980Z,8.77
2022-10-21T07:10:15.523Z,8.10
2022-10-21T07:15:16.991Z,8.00
2022-10-21T07:20:18.449Z,7.97
2022-10-21T07:25:20.161Z,8.57
2022-10-21T07:30:21.655Z,8.73
2022-10-21T07:35:23.669Z,10.50
2022-10-21T07:40:25.086Z,9.02
2022-10-21T07:45:26.513Z,8.60
2022-10-21T07:50:28.014Z,9.15
2022-10-21T07:55:29.892Z,8.23
2022-10-21T08:00:31.324Z,9.20
2022-10-21T08:05:32.709Z,7.97
2022-10-21T08:10:39.621Z,7.90
2022-10-21T08:15:45.123Z,7.03
2022-10-21T08:20:47.514Z,6.15
2022-10-21T08:25:54.107Z,7.05
2022-10-21T08:31:08.974Z,7.07
2022-10-21T08:36:20.471Z,7.50
2022-10-21T08:41:30.957Z,5.97
2022-10-21T08:46:37.716Z,6.20
2022-10-21T08:51:49.507Z,5.75
2022-10-21T08:56:55.907Z,4.88
2022-10-21T09:01:57.251Z,5.22
2022-10-21T09:07:25.454Z,5.03
2022-10-21T09:12:52.157Z,6.18
2022-10-21T09:18:22.769Z,5.20
2022-10-21T09:23:45.289Z,4.15
2022-10-21T09:28:48.034Z,3.90
2022-10-21T09:34:02.425Z,4.28
2022-10-21T09:39:12.690Z,3.50
2022-10-21T09:44:18.390Z,3.53
2022-10-21T09:50:01.721Z,2.83
2022-10-21T09:54:52.921Z,2.42
2022-10-21T10:00:02.239Z,2.50
2022-10-21T10:05:41.778Z,2.17
2022-10-21T10:10:43.151Z,2.15
2022-10-21T10:15:44.619Z,2.17
2022-10-21T10:20:46.008Z,2.00
2022-10-21T10:25:50.930Z,1.98
2022-10-21T10:30:55.616Z,1.40
2022-10-21T10:36:05.211Z,2.45
2022-10-21T10:41:14.313Z,1.40
2022-10-21T10:46:24.642Z,1.65
2022-10-21T10:51:32.620Z,2.20
2022-10-21T10:56:43.182Z,2.13
2022-10-21T11:02:07.864Z,1.60
2022-10-21T11:07:28.959Z,1.60
2022-10-21T11:12:30.799Z,1.55
2022-10-21T11:17:40.663Z,1.90
2022-10-21T11:23:01.800Z,1.60
2022-10-21T11:28:34.136Z,1.92
2022-10-21T11:34:18.250Z,1.45
2022-10-21T11:39:31.915Z,1.33
2022-10-21T11:44:46.234Z,1.55
2022-10-21T11:50:02.559Z,1.10
2022-10-21T11:55:34.335Z,1.35
2022-10-21T12:00:48.703Z,1.77
2022-10-21T12:06:04.698Z,1.83
2022-10-21T12:11:12.566Z,1.90
2022-10-21T12:16:20.408Z,2.28
2022-10-21T12:21:26.344Z,2.10
2022-10-21T12:26:40.489Z,2.03
2022-10-21T12:32:00.881Z,2.30
2022-10-21T12:37:02.328Z,1.55
2022-10-21T12:42:13.405Z,1.00
2022-10-21T12:47:24.895Z,1.13
2022-10-21T12:52:26.304Z,0.90
2022-10-21T12:57:34.723Z,0.95
2022-10-21T13:02:55.760Z,1.40
2022-10-21T13:08:44.365Z,0.95
2022-10-21T13:13:47.629Z,0.88
2022-10-21T13:18:58.039Z,0.85
2022-10-21T13:24:11.777Z,1.00
2022-10-21T13:29:16.197Z,1.35
2022-10-21T13:34:27.806Z,1.80
2022-10-21T13:39:33.564Z,1.40
2022-10-21T13:44:40.260Z,0.90
2022-10-21T13:49:41.637Z,0.95
2022-10-21T14:00:04.789Z,1.27
2022-10-21T14:05:25.924Z,0.82
2022-10-21T14:10:29.398Z,0.90
2022-10-21T14:15:38.125Z,1.42
2022-10-21T14:20:40.805Z,1.40
2022-10-21T14:25:42.330Z,1.10
2022-10-21T14:30:43.819Z,1.10
2022-10-21T14:36:04.512Z,0.98
2022-10-21T14:41:12.882Z,1.08
2022-10-21T14:46:14.338Z,1.23
2022-10-21T14:51:20.496Z,1.20
2022-10-21T14:56:33.759Z,1.45
2022-10-21T15:01:35.320Z,1.17
2022-10-21T15:06:36.761Z,1.65
2022-10-21T15:11:46.372Z,1.55
2022-10-21T15:17:03.334Z,1.60
2022-10-21T15:22:05.886Z,1.42
2022-10-21T15:27:15.860Z,1.67
2022-10-21T15:32:17.308Z,2.00
2022-10-21T15:37:19.686Z,1.80
2022-10-21T15:42:21.098Z,1.70
2022-10-21T15:47:22.498Z,2.70
2022-10-21T15:52:23.907Z,1.90
2022-10-21T15:57:25.309Z,1.65
2022-10-21T16:02:26.722Z,1.40
2022-10-21T16:07:29.067Z,2.10
2022-10-21T16:12:30.460Z,2.13
2022-10-21T16:17:31.878Z,2.03
2022-10-21T16:22:33.249Z,2.15
2022-10-21T16:27:51.035Z,2.67
2022-10-21T16:32:56.354Z,2.75
2022-10-21T16:37:57.821Z,3.05
2022-10-21T16:42:59.219Z,3.60
2022-10-21T16:48:03.250Z,3.55
2022-10-21T16:53:05.727Z,3.85
2022-10-21T16:58:07.230Z,3.63
2022-10-21T17:03:11.613Z,4.10
2022-10-21T17:08:13.038Z,3.35
2022-10-21T17:13:14.473Z,3.03
2022-10-21T17:18:16.025Z,2.92
2022-10-21T17:23:17.475Z,3.03
2022-10-21T17:28:18.870Z,3.28
2022-10-21T17:33:20.259Z,34.03
2022-10-21T17:38:21.698Z,18.27
2022-10-21T17:43:23.104Z,10.18
2022-10-21T17:48:24.526Z,5.22
2022-10-21T17:53:27.659Z,3.17
2022-10-21T17:58:29.789Z,3.20
2022-10-21T18:03:31.203Z,3.78
2022-10-21T18:08:32.750Z,4.07
2022-10-21T18:13:34.545Z,6.10
2022-10-21T18:18:36.895Z,5.78
2022-10-21T18:23:40.649Z,4.57
2022-10-21T18:28:42.114Z,5.30
2022-10-21T18:33:43.495Z,4.97
2022-10-21T18:38:45.082Z,4.63
2022-10-21T18:43:53.202Z,4.38
2022-10-21T18:48:54.795Z,3.63
2022-10-21T18:53:56.518Z,5.88
2022-10-21T18:58:57.931Z,4.43
2022-10-21T19:03:59.376Z,4.38
2022-10-21T19:09:02.144Z,6.25
2022-10-21T19:14:03.618Z,6.15
2022-10-21T19:19:05.459Z,5.68
2022-10-21T19:24:07.520Z,5.28
2022-10-21T19:29:12.421Z,7.55
2022-10-21T19:34:21.470Z,4.53
2022-10-21T19:44:24.299Z,3.72
2022-10-21T19:49:25.683Z,3.88
2022-10-21T19:54:27.080Z,4.65
2022-10-21T19:59:28.485Z,4.18
2022-10-21T20:04:32.548Z,4.60
2022-10-21T20:09:38.843Z,4.88
2022-10-21T20:14:40.503Z,5.20
2022-10-21T20:19:41.893Z,4.40
2022-10-21T20:24:46.263Z,5.35
2022-10-21T20:29:47.988Z,5.25
2022-10-21T20:34:49.387Z,4.78
2022-10-21T20:39:50.860Z,5.68
2022-10-21T20:44:52.269Z,4.82
2022-10-21T20:49:53.744Z,4.25
2022-10-21T20:54:55.137Z,3.25
2022-10-21T20:59:56.508Z,3.38
2022-10-21T21:04:57.890Z,5.07
2022-10-21T21:10:02.839Z,4.22
2022-10-21T21:15:05.321Z,4.15
2022-10-21T21:20:07.534Z,3.95
2022-10-21T21:25:09.716Z,3.65
2022-10-21T21:30:11.531Z,3.65
2022-10-21T21:35:12.960Z,3.75
2022-10-21T21:40:14.330Z,4.13
2022-10-21T21:45:15.695Z,3.28
2022-10-21T21:50:17.101Z,2.30
2022-10-21T21:55:18.487Z,2.22
2022-10-21T22:00:19.850Z,3.20
2022-10-21T22:05:26.146Z,2.70
2022-10-21T22:10:29.316Z,4.05
2022-10-21T22:15:46.917Z,3.20
2022-10-21T22:26:14.052Z,2.35
2022-10-21T22:31:17.828Z,2.80
2022-10-21T22:36:19.243Z,2.25
2022-10-21T22:46:44.357Z,2.60
2022-10-21T22:51:45.753Z,2.90
2022-10-21T22:56:47.683Z,3.42
2022-10-21T23:01:49.083Z,3.13
2022-10-21T23:06:50.490Z,3.38
2022-10-21T23:11:51.860Z,3.40
2022-10-21T23:16:53.288Z,3.00
2022-10-21T23:21:54.694Z,2.92
2022-10-21T23:26:59.105Z,2.90
2022-10-21T23:32:03.494Z,2.60
2022-10-21T23:37:04.897Z,2.88
2022-10-21T23:42:06.277Z,3.17
2022-10-21T23:47:07.661Z,3.47
2022-10-21T23:52:09.205Z,1.00
2022-10-21T23:57:10.599Z,0.60
